PWSweather.com
Personal Weather Stations
Station Observations
HVALPSUND
Hvalpsund, FarsoeDK 9640

HvalpsundFarsoeDK 9640

Lat: 56.705311, Lon: 9.203638

Elevation: 5

Station Type: Vantage Pro2

http://hvalpsundvejr.dk

Latest ConditionsUpdated 10:45:57 PM GMT+01:01 Sunday, May 27, 2018
Currently Today's Max Today's Min Today's Average
Temperature 61.9°F16.6°C 72.9°F22.7°C 61.8°F16.6°C 66.1°F18.9°C
Dew Point 54.6°F12.6°C 55.0°F12.8°C 50.2°F10.1°C 53.2°F11.8°C
Winds Calm Calm 8.0 mph ESE12.9 kmh ESE - 2.3 mph 3.7 kmh
Wind Gusts -- 11.0 mph17.7 kmh - -
Humidity 77% 77% 45% 64%
Pressure 30.26 in1024.7 mb 30.27 in1025.1 mb 30.25 in1024.4 mb -
Hour Temp Dew Point Humidity Winds Wind Gusts Pressure Precip Precip Rate Daily Precip Total
10:45 PM 61.9°F16.6°C 54.6°F12.6°C 77% Calm Calm 1.0 mph1.6 kmh 30.26 in1024.7 mb 0.00 in0.0 mm 0.00 in0.0 mm 0.00 in0.0 mm
10:44 PM 61.8°F16.6°C 54.5°F12.5°C 77% Calm Calm 1.0 mph1.6 kmh 30.26 in1024.7 mb 0.00 in0.0 mm 0.00 in0.0 mm 0.00 in0.0 mm
10:43 PM 62.2°F16.8°C 54.9°F12.7°C 77% 2.0 mph ENE3.2 kmh ENE 3.0 mph4.8 kmh 30.26 in1024.7 mb 0.00 in0.0 mm 0.00 in0.0 mm 0.00 in0.0 mm
10:41 PM 62.2°F16.8°C 54.9°F12.7°C 77% 2.0 mph ENE3.2 kmh ENE 3.0 mph4.8 kmh 30.27 in1025.1 mb 0.00 in0.0 mm 0.00 in0.0 mm 0.00 in0.0 mm
10:39 PM 62.5°F16.9°C 54.8°F12.7°C 76% 3.0 mph NE4.8 kmh NE 4.0 mph6.4 kmh 30.27 in1025.1 mb 0.00 in0.0 mm 0.00 in0.0 mm 0.00 in0.0 mm
10:37 PM 62.6°F17.0°C 54.6°F12.6°C 75% 3.0 mph NE4.8 kmh NE 3.0 mph4.8 kmh 30.27 in1025.1 mb 0.00 in0.0 mm 0.00 in0.0 mm 0.00 in0.0 mm
10:35 PM 62.7°F17.1°C 53.9°F12.2°C 73% 3.0 mph ENE4.8 kmh ENE 4.0 mph6.4 kmh 30.27 in1025.1 mb 0.00 in0.0 mm 0.00 in0.0 mm 0.00 in0.0 mm
10:33 PM 63.3°F17.4°C 54.1°F12.3°C 72% Calm Calm -- 30.27 in1025.1 mb 0.00 in0.0 mm 0.00 in0.0 mm 0.00 in0.0 mm
10:31 PM 63.4°F17.4°C 54.2°F12.3°C 72% 3.0 mph SE4.8 kmh SE 4.0 mph6.4 kmh 30.27 in1025.1 mb 0.00 in0.0 mm 0.00 in0.0 mm 0.00 in0.0 mm
10:29 PM 63.5°F17.5°C 53.5°F11.9°C 70% Calm Calm -- 30.27 in1025.1 mb 0.00 in0.0 mm 0.00 in0.0 mm 0.00 in0.0 mm
10:27 PM 63.4°F17.4°C 53.0°F11.7°C 69% 1.0 mph ESE1.6 kmh ESE 2.0 mph3.2 kmh 30.27 in1025.1 mb 0.00 in0.0 mm 0.00 in0.0 mm 0.00 in0.0 mm
10:24 PM 65.0°F18.3°C 52.5°F11.4°C 64% Calm Calm -- 30.27 in1025.1 mb 0.00 in0.0 mm 0.00 in0.0 mm 0.00 in0.0 mm
10:22 PM 66.1°F18.9°C 52.7°F11.5°C 62% Calm Calm 1.0 mph1.6 kmh 30.27 in1025.1 mb 0.00 in0.0 mm 0.00 in0.0 mm 0.00 in0.0 mm
10:21 PM 66.2°F19.0°C 52.3°F11.3°C 61% 1.0 mph ESE1.6 kmh ESE 1.0 mph1.6 kmh 30.27 in1025.1 mb 0.00 in0.0 mm 0.00 in0.0 mm 0.00 in0.0 mm
10:19 PM 67.4°F19.7°C 53.0°F11.7°C 60% 2.0 mph ESE3.2 kmh ESE 3.0 mph4.8 kmh 30.27 in1025.1 mb 0.00 in0.0 mm 0.00 in0.0 mm 0.00 in0.0 mm
10:15 PM 69.5°F20.8°C 52.6°F11.4°C 55% 3.0 mph SE4.8 kmh SE 4.0 mph6.4 kmh 30.27 in1025.1 mb 0.00 in0.0 mm 0.00 in0.0 mm 0.00 in0.0 mm
10:13 PM 69.9°F21.1°C 52.5°F11.4°C 54% 3.0 mph SE4.8 kmh SE 4.0 mph6.4 kmh 30.27 in1025.1 mb 0.00 in0.0 mm 0.00 in0.0 mm 0.00 in0.0 mm
10:11 PM 70.4°F21.3°C 52.4°F11.3°C 53% 4.0 mph SE6.4 kmh SE 5.0 mph8.0 kmh 30.26 in1024.7 mb 0.00 in0.0 mm 0.00 in0.0 mm 0.00 in0.0 mm
10:09 PM 71.5°F21.9°C 51.9°F11.1°C 50% 6.0 mph ESE9.7 kmh ESE 7.0 mph11.3 kmh 30.26 in1024.7 mb 0.00 in0.0 mm 0.00 in0.0 mm 0.00 in0.0 mm
10:07 PM 72.5°F22.5°C 51.1°F10.6°C 47% 5.0 mph SE8.0 kmh SE 8.0 mph12.9 kmh 30.25 in1024.4 mb 0.00 in0.0 mm 0.00 in0.0 mm 0.00 in0.0 mm
10:06 PM 72.7°F22.6°C 50.7°F10.4°C 46% 5.0 mph ESE8.0 kmh ESE 7.0 mph11.3 kmh 30.25 in1024.4 mb 0.00 in0.0 mm 0.00 in0.0 mm 0.00 in0.0 mm
10:04 PM 72.8°F22.7°C 50.8°F10.4°C 46% 8.0 mph ESE12.9 kmh ESE 10.0 mph16.1 kmh 30.25 in1024.4 mb 0.00 in0.0 mm 0.00 in0.0 mm 0.00 in0.0 mm
10:00 PM 72.9°F22.7°C 50.3°F10.2°C 45% 7.0 mph ESE11.3 kmh ESE 10.0 mph16.1 kmh 30.25 in1024.4 mb 0.00 in0.0 mm 0.00 in0.0 mm 0.00 in0.0 mm